createdAt,value
2018-07-13T00:00:59.418Z,16.72
2018-07-13T00:01:59.350Z,16.66
2018-07-13T00:02:59.302Z,16.66
2018-07-13T00:03:59.252Z,16.66
2018-07-13T00:04:59.220Z,16.66
2018-07-13T00:05:59.178Z,16.62
2018-07-13T00:06:59.107Z,16.62
2018-07-13T00:07:59.061Z,16.61
2018-07-13T00:08:59.016Z,16.64
2018-07-13T00:09:58.963Z,16.62
2018-07-13T00:10:58.941Z,16.62
2018-07-13T00:11:58.881Z,16.65
2018-07-13T00:12:58.820Z,16.56
2018-07-13T00:13:58.773Z,16.46
2018-07-13T00:14:58.731Z,16.44
2018-07-13T00:15:58.705Z,16.35
2018-07-13T00:16:58.633Z,16.29
2018-07-13T00:17:58.587Z,16.41
2018-07-13T00:18:58.540Z,16.32
2018-07-13T00:19:58.493Z,16.34
2018-07-13T00:20:58.470Z,16.32
2018-07-13T00:21:58.396Z,16.34
2018-07-13T00:22:58.352Z,16.32
2018-07-13T00:23:58.307Z,16.32
2018-07-13T00:24:58.255Z,16.34
2018-07-13T00:25:58.234Z,16.20
2018-07-13T00:26:58.161Z,16.29
2018-07-13T00:27:58.113Z,16.21
2018-07-13T00:28:58.068Z,16.16
2018-07-13T00:29:58.029Z,16.17
2018-07-13T00:30:58.001Z,16.02
2018-07-13T00:31:57.926Z,16.10
2018-07-13T00:32:57.878Z,16.05
2018-07-13T00:33:57.827Z,16.02
2018-07-13T00:34:57.787Z,16.05
2018-07-13T00:35:57.756Z,15.98
2018-07-13T00:36:57.685Z,15.95
2018-07-13T00:37:57.640Z,15.85
2018-07-13T00:38:57.595Z,15.88
2018-07-13T00:39:57.543Z,15.88
2018-07-13T00:40:57.519Z,15.88
2018-07-13T00:41:57.447Z,15.83
2018-07-13T00:42:57.404Z,15.82
2018-07-13T00:43:57.352Z,15.80
2018-07-13T00:44:57.305Z,15.85
2018-07-13T00:45:57.278Z,15.85
2018-07-13T00:46:57.225Z,15.80
2018-07-13T00:47:57.162Z,15.75
2018-07-13T00:48:57.113Z,15.76
2018-07-13T00:49:57.076Z,15.73
2018-07-13T00:50:57.042Z,15.69
2018-07-13T00:51:56.970Z,15.58
2018-07-13T00:52:56.924Z,15.68
2018-07-13T00:53:56.878Z,15.64
2018-07-13T00:54:56.828Z,15.61
2018-07-13T00:55:56.815Z,15.58
2018-07-13T00:56:56.747Z,15.58
2018-07-13T00:57:56.683Z,15.60
2018-07-13T00:58:56.641Z,15.60
2018-07-13T00:59:56.592Z,15.58
2018-07-13T01:00:56.566Z,15.58
2018-07-13T01:01:56.496Z,15.58
2018-07-13T01:02:56.453Z,15.57
2018-07-13T01:03:56.401Z,15.46
2018-07-13T01:04:56.353Z,15.50
2018-07-13T01:05:56.330Z,15.54
2018-07-13T01:06:56.260Z,15.40
2018-07-13T01:07:56.210Z,15.48
2018-07-13T01:08:56.166Z,15.33
2018-07-13T01:09:56.115Z,15.32
2018-07-13T01:10:56.106Z,15.36
2018-07-13T01:11:56.022Z,15.32
2018-07-13T01:12:55.972Z,15.24
2018-07-13T01:13:55.926Z,15.28
2018-07-13T01:14:55.879Z,15.36
2018-07-13T01:15:55.856Z,15.24
2018-07-13T01:16:55.779Z,15.25
2018-07-13T01:17:55.745Z,15.17
2018-07-13T01:18:55.685Z,15.18
2018-07-13T01:19:55.637Z,15.22
2018-07-13T01:20:55.635Z,15.21
2018-07-13T01:21:55.555Z,15.28
2018-07-13T01:22:55.499Z,15.33
2018-07-13T01:23:55.445Z,15.32
2018-07-13T01:24:55.400Z,15.28
2018-07-13T01:25:55.357Z,15.35
2018-07-13T01:26:55.324Z,15.42
2018-07-13T01:27:55.255Z,15.37
2018-07-13T01:28:55.209Z,15.32
2018-07-13T01:29:55.161Z,15.25
2018-07-13T01:30:55.124Z,15.28
2018-07-13T01:31:55.096Z,15.30
2018-07-13T01:32:55.018Z,15.17
2018-07-13T01:33:54.972Z,15.27
2018-07-13T01:34:54.920Z,15.18
2018-07-13T01:35:54.873Z,15.22
2018-07-13T01:36:54.854Z,15.15
2018-07-13T01:37:54.778Z,15.14
2018-07-13T01:38:54.733Z,15.15
2018-07-13T01:39:54.682Z,15.03
2018-07-13T01:40:54.630Z,15.09
2018-07-13T01:41:54.612Z,14.97
2018-07-13T01:42:54.537Z,15.12
2018-07-13T01:43:54.491Z,14.99
2018-07-13T01:44:54.441Z,15.14
2018-07-13T01:45:54.392Z,15.06
2018-07-13T01:46:54.378Z,15.14
2018-07-13T01:47:54.293Z,15.03
2018-07-13T01:48:54.254Z,15.07
2018-07-13T01:49:54.205Z,15.03
2018-07-13T01:50:54.154Z,15.12
2018-07-13T01:51:54.132Z,15.03
2018-07-13T01:52:54.063Z,15.04
2018-07-13T01:53:54.012Z,15.00
2018-07-13T01:54:53.964Z,14.99
2018-07-13T01:55:53.915Z,15.11
2018-07-13T01:56:53.886Z,15.09
2018-07-13T01:57:53.824Z,15.03
2018-07-13T01:58:53.774Z,15.03
2018-07-13T01:59:53.723Z,15.02
2018-07-13T02:00:53.678Z,15.02
2018-07-13T02:01:53.646Z,15.11
2018-07-13T02:02:53.577Z,15.09
2018-07-13T02:03:53.534Z,15.07
2018-07-13T02:04:53.484Z,14.99
2018-07-13T02:05:53.438Z,14.99
2018-07-13T02:06:53.414Z,14.99
2018-07-13T02:07:53.337Z,15.03
2018-07-13T02:08:53.291Z,15.06
2018-07-13T02:09:53.245Z,14.96
2018-07-13T02:10:53.192Z,14.99
2018-07-13T02:11:53.186Z,15.15
2018-07-13T02:12:53.122Z,15.09
2018-07-13T02:13:53.056Z,15.14
2018-07-13T02:14:53.003Z,15.18
2018-07-13T02:15:52.954Z,15.12
2018-07-13T02:16:52.937Z,15.07
2018-07-13T02:17:52.885Z,15.18
2018-07-13T02:18:52.820Z,15.07
2018-07-13T02:19:52.765Z,15.18
2018-07-13T02:20:52.722Z,15.21
2018-07-13T02:21:52.692Z,15.22
2018-07-13T02:22:52.622Z,15.22
2018-07-13T02:23:52.577Z,15.19
2018-07-13T02:24:52.534Z,15.21
2018-07-13T02:25:52.471Z,15.21
2018-07-13T02:26:52.455Z,15.21
2018-07-13T02:27:52.381Z,15.21
2018-07-13T02:28:52.331Z,15.21
2018-07-13T02:29:52.285Z,15.21
2018-07-13T02:30:52.239Z,15.19
2018-07-13T02:31:52.212Z,15.14
2018-07-13T02:32:52.150Z,15.15
2018-07-13T02:33:52.111Z,15.14
2018-07-13T02:34:52.052Z,15.15
2018-07-13T02:35:52.005Z,15.07
2018-07-13T02:36:51.974Z,15.12
2018-07-13T02:37:51.901Z,15.14
2018-07-13T02:38:51.862Z,15.03
2018-07-13T02:39:51.804Z,15.09
2018-07-13T02:40:51.755Z,15.03
2018-07-13T02:41:51.736Z,15.03
2018-07-13T02:42:51.666Z,15.02
2018-07-13T02:43:51.615Z,15.04
2018-07-13T02:44:51.566Z,15.00
2018-07-13T02:45:51.517Z,14.96
2018-07-13T02:46:51.495Z,14.96
2018-07-13T02:47:51.423Z,14.97
2018-07-13T02:48:51.375Z,15.00
2018-07-13T02:49:51.329Z,14.99
2018-07-13T02:50:51.278Z,15.00
2018-07-13T02:51:51.265Z,14.96
2018-07-13T02:52:51.186Z,14.99
2018-07-13T02:53:51.133Z,14.97
2018-07-13T02:54:51.085Z,14.96
2018-07-13T02:55:51.037Z,15.00
2018-07-13T02:56:50.991Z,14.97
2018-07-13T02:57:50.966Z,15.00
2018-07-13T02:58:50.900Z,14.93
2018-07-13T02:59:50.848Z,14.97
2018-07-13T03:00:50.800Z,14.87
2018-07-13T03:01:50.750Z,14.87
2018-07-13T03:02:50.731Z,14.84
2018-07-13T03:03:50.653Z,14.85
2018-07-13T03:04:50.607Z,14.88
2018-07-13T03:05:50.560Z,14.73
2018-07-13T03:06:50.518Z,14.77
2018-07-13T03:07:50.489Z,14.68
2018-07-13T03:08:50.416Z,14.69
2018-07-13T03:09:50.366Z,14.68
2018-07-13T03:10:50.318Z,14.62
2018-07-13T03:11:50.270Z,14.61
2018-07-13T03:12:50.248Z,14.68
2018-07-13T03:13:50.180Z,14.70
2018-07-13T03:14:50.127Z,14.62
2018-07-13T03:15:50.080Z,14.66
2018-07-13T03:16:50.033Z,14.65
2018-07-13T03:17:50.009Z,14.74
2018-07-13T03:18:49.948Z,14.63
2018-07-13T03:19:49.888Z,14.65
2018-07-13T03:20:49.840Z,14.70
2018-07-13T03:21:49.792Z,14.81
2018-07-13T03:22:49.769Z,14.78
2018-07-13T03:23:49.691Z,14.89
2018-07-13T03:24:49.650Z,14.85
2018-07-13T03:25:49.599Z,14.84
2018-07-13T03:26:49.549Z,14.88
2018-07-13T03:27:49.524Z,14.82
2018-07-13T03:28:49.457Z,14.85
2018-07-13T03:29:49.404Z,14.89
2018-07-13T03:30:49.354Z,14.89
2018-07-13T03:31:49.310Z,14.89
2018-07-13T03:32:49.290Z,14.87
2018-07-13T03:33:49.214Z,14.85
2018-07-13T03:34:49.166Z,14.81
2018-07-13T03:35:49.115Z,14.81
2018-07-13T03:36:49.066Z,14.81
2018-07-13T03:37:49.044Z,14.91
2018-07-13T03:38:48.976Z,15.00
2018-07-13T03:39:48.931Z,14.93
2018-07-13T03:40:48.878Z,15.00
2018-07-13T03:41:48.829Z,14.97
2018-07-13T03:42:48.805Z,15.02
2018-07-13T03:43:48.731Z,14.96
2018-07-13T03:44:48.689Z,14.91
2018-07-13T03:45:48.660Z,15.02
2018-07-13T03:46:48.589Z,15.00
2018-07-13T03:47:48.565Z,14.99
2018-07-13T03:48:48.495Z,14.96
2018-07-13T03:49:48.447Z,14.99
2018-07-13T03:50:48.400Z,15.02
2018-07-13T03:51:48.349Z,15.09
2018-07-13T03:52:48.326Z,15.12
2018-07-13T03:53:48.254Z,15.19
2018-07-13T03:54:48.206Z,15.12
2018-07-13T03:55:48.157Z,15.17
2018-07-13T03:56:48.108Z,15.18
2018-07-13T03:57:48.084Z,15.22
2018-07-13T03:58:48.013Z,15.17
2018-07-13T03:59:47.964Z,15.18
2018-07-13T04:00:47.919Z,15.21
2018-07-13T04:01:47.869Z,15.18
2018-07-13T04:02:47.846Z,15.21
2018-07-13T04:03:47.821Z,15.18
2018-07-13T04:04:47.730Z,15.19
2018-07-13T04:05:47.676Z,15.22
2018-07-13T04:06:47.628Z,15.30
2018-07-13T04:07:47.602Z,15.33
2018-07-13T04:08:47.531Z,15.24
2018-07-13T04:09:47.485Z,15.36
2018-07-13T04:10:47.438Z,15.32
2018-07-13T04:11:47.388Z,15.37
2018-07-13T04:12:47.373Z,15.36
2018-07-13T04:13:47.298Z,15.42
2018-07-13T04:14:47.294Z,15.39
2018-07-13T04:15:47.206Z,15.37
2018-07-13T04:16:47.154Z,15.33
2018-07-13T04:17:47.125Z,15.35
2018-07-13T04:18:47.056Z,15.30
2018-07-13T04:19:47.009Z,15.32
2018-07-13T04:20:46.963Z,15.37
2018-07-13T04:21:46.916Z,15.39
2018-07-13T04:22:46.897Z,15.35
2018-07-13T04:23:46.817Z,15.43
2018-07-13T04:24:46.770Z,15.36
2018-07-13T04:25:46.720Z,15.37
2018-07-13T04:26:46.675Z,15.42
2018-07-13T04:27:46.629Z,15.39
2018-07-13T04:28:46.672Z,15.30
2018-07-13T04:29:46.527Z,15.36
2018-07-13T04:30:46.485Z,15.33
2018-07-13T04:31:46.431Z,15.40
2018-07-13T04:32:46.403Z,15.35
2018-07-13T04:33:46.361Z,15.44
2018-07-13T04:34:46.286Z,15.44
2018-07-13T04:35:46.244Z,15.50
2018-07-13T04:36:46.196Z,15.46
2018-07-13T04:37:46.146Z,15.46
2018-07-13T04:38:46.113Z,15.43
2018-07-13T04:39:46.047Z,15.44
2018-07-13T04:40:46.013Z,15.50
2018-07-13T04:41:45.971Z,15.44
2018-07-13T04:42:45.902Z,15.48
2018-07-13T04:43:45.878Z,15.46
2018-07-13T04:44:45.810Z,15.44
2018-07-13T04:45:45.774Z,15.43
2018-07-13T04:46:45.715Z,15.48
2018-07-13T04:47:45.675Z,15.44
2018-07-13T04:48:45.640Z,15.51
2018-07-13T04:49:45.571Z,15.50
2018-07-13T04:50:45.521Z,15.50
2018-07-13T04:51:45.488Z,15.50
2018-07-13T04:52:45.426Z,15.52
2018-07-13T04:53:45.398Z,15.58
2018-07-13T04:54:45.386Z,15.61
2018-07-13T04:55:45.281Z,15.70
2018-07-13T04:56:45.232Z,15.65
2018-07-13T04:57:45.186Z,15.73
2018-07-13T04:58:45.161Z,15.58
2018-07-13T04:59:45.091Z,15.60
2018-07-13T05:00:45.133Z,15.72
2018-07-13T05:01:45.028Z,15.65
2018-07-13T05:02:44.948Z,15.61
2018-07-13T05:03:44.930Z,15.65
2018-07-13T05:04:44.858Z,15.62
2018-07-13T05:05:44.803Z,15.73
2018-07-13T05:06:44.756Z,15.82
2018-07-13T05:07:44.709Z,15.82
2018-07-13T05:08:44.683Z,15.77
2018-07-13T05:09:44.613Z,15.73
2018-07-13T05:10:44.563Z,15.72
2018-07-13T05:11:44.517Z,15.77
2018-07-13T05:12:44.470Z,15.76
2018-07-13T05:13:44.446Z,15.77
2018-07-13T05:14:44.375Z,15.83
2018-07-13T05:15:44.329Z,15.79
2018-07-13T05:16:44.286Z,15.88
2018-07-13T05:17:44.231Z,15.87
2018-07-13T05:18:44.203Z,15.85
2018-07-13T05:19:44.136Z,15.94
2018-07-13T05:20:44.088Z,15.95
2018-07-13T05:21:44.055Z,15.90
2018-07-13T05:22:43.993Z,15.85
2018-07-13T05:23:43.969Z,15.91
2018-07-13T05:24:43.902Z,15.95
2018-07-13T05:25:43.850Z,16.01
2018-07-13T05:26:43.805Z,16.01
2018-07-13T05:27:43.750Z,15.94
2018-07-13T05:28:43.745Z,16.10
2018-07-13T05:29:43.657Z,16.02
2018-07-13T05:30:50.817Z,16.06
2018-07-13T05:31:43.565Z,16.06
2018-07-13T05:32:43.515Z,16.17
2018-07-13T05:33:43.497Z,16.16
2018-07-13T05:34:43.423Z,16.24
2018-07-13T05:35:43.375Z,16.15
2018-07-13T05:36:43.327Z,16.24
2018-07-13T05:37:43.278Z,16.09
2018-07-13T05:38:43.276Z,16.09
2018-07-13T05:39:43.189Z,16.06
2018-07-13T05:40:43.141Z,16.06
2018-07-13T05:41:43.088Z,16.02
2018-07-13T05:42:43.049Z,16.01
2018-07-13T05:43:43.005Z,16.08
2018-07-13T05:44:42.990Z,15.98
2018-07-13T05:45:42.903Z,16.08
2018-07-13T05:46:42.854Z,16.08
2018-07-13T05:47:42.812Z,16.05
2018-07-13T05:48:42.760Z,16.09
2018-07-13T05:49:42.750Z,16.17
2018-07-13T05:50:42.666Z,16.10
2018-07-13T05:51:42.614Z,16.06
2018-07-13T05:52:42.570Z,16.16
2018-07-13T05:53:42.517Z,16.09
2018-07-13T05:54:42.493Z,16.05
2018-07-13T05:55:42.429Z,16.06
2018-07-13T05:56:42.379Z,16.10
2018-07-13T05:57:42.348Z,16.15
2018-07-13T05:58:42.282Z,16.12
2018-07-13T05:59:42.259Z,16.17
2018-07-13T06:00:42.190Z,16.09
2018-07-13T06:01:42.142Z,16.09
2018-07-13T06:02:42.096Z,16.05
2018-07-13T06:03:42.051Z,16.06
2018-07-13T06:04:42.028Z,16.06
2018-07-13T06:05:41.951Z,16.09
2018-07-13T06:06:41.907Z,16.17
2018-07-13T06:07:41.872Z,16.13
2018-07-13T06:08:41.808Z,16.17
2018-07-13T06:09:41.795Z,16.20
2018-07-13T06:10:41.713Z,16.17
2018-07-13T06:11:41.668Z,16.16
2018-07-13T06:12:41.627Z,16.25
2018-07-13T06:13:41.572Z,16.24
2018-07-13T06:14:41.610Z,16.24
2018-07-13T06:15:41.480Z,16.21
2018-07-13T06:16:41.427Z,16.21
2018-07-13T06:17:41.384Z,16.24
2018-07-13T06:18:41.335Z,16.06
2018-07-13T06:19:41.314Z,16.06
2018-07-13T06:20:41.245Z,16.20
2018-07-13T06:21:41.195Z,16.17
2018-07-13T06:22:41.141Z,16.17
2018-07-13T06:23:41.107Z,16.20
2018-07-13T06:24:41.077Z,16.24
2018-07-13T06:25:41.015Z,16.24
2018-07-13T06:26:40.956Z,16.24
2018-07-13T06:27:40.908Z,16.09
2018-07-13T06:28:40.910Z,16.15
2018-07-13T06:29:40.838Z,16.25
2018-07-13T06:30:40.765Z,16.20
2018-07-13T06:31:40.720Z,16.32
2018-07-13T06:32:40.676Z,16.29
2018-07-13T06:33:40.628Z,16.36
2018-07-13T06:34:40.600Z,16.46
2018-07-13T06:35:40.529Z,16.46
2018-07-13T06:36:40.485Z,16.49
2018-07-13T06:37:40.432Z,16.44
2018-07-13T06:38:40.384Z,16.46
2018-07-13T06:39:40.363Z,16.46
2018-07-13T06:40:40.299Z,16.47
2018-07-13T06:41:40.250Z,16.49
2018-07-13T06:42:40.201Z,16.47
2018-07-13T06:43:40.152Z,16.47
2018-07-13T06:44:40.183Z,16.50
2018-07-13T06:45:40.059Z,16.49
2018-07-13T06:46:40.009Z,16.46
2018-07-13T06:47:39.961Z,16.54
2018-07-13T06:48:39.913Z,16.57
2018-07-13T06:49:39.891Z,16.65
2018-07-13T06:50:39.887Z,16.61
2018-07-13T06:51:39.772Z,16.66
2018-07-13T06:52:39.727Z,16.62
2018-07-13T06:53:39.676Z,16.64
2018-07-13T06:54:39.654Z,16.65
2018-07-13T06:55:39.583Z,16.56
2018-07-13T06:56:39.565Z,16.62
2018-07-13T06:57:39.487Z,16.54
2018-07-13T06:58:39.444Z,16.51
2018-07-13T06:59:39.441Z,16.57
2018-07-13T07:00:39.345Z,16.57
2018-07-13T07:01:39.303Z,16.49
2018-07-13T07:02:39.250Z,16.47
2018-07-13T07:03:39.206Z,16.54
2018-07-13T07:04:39.198Z,16.53
2018-07-13T07:05:39.112Z,16.57
2018-07-13T07:06:39.064Z,16.65
2018-07-13T07:07:39.051Z,16.65
2018-07-13T07:08:38.993Z,16.65
2018-07-13T07:09:38.919Z,16.65
2018-07-13T07:10:38.902Z,16.71
2018-07-13T07:11:38.828Z,16.71
2018-07-13T07:12:38.783Z,16.72
2018-07-13T07:13:38.739Z,16.71
2018-07-13T07:14:38.690Z,16.71
2018-07-13T07:15:38.663Z,16.75
2018-07-13T07:16:38.594Z,16.84
2018-07-13T07:17:38.593Z,16.69
2018-07-13T07:18:38.495Z,16.71
2018-07-13T07:19:38.451Z,16.84
2018-07-13T07:20:38.422Z,16.75
2018-07-13T07:21:38.355Z,16.76
2018-07-13T07:22:38.308Z,16.72
2018-07-13T07:23:38.266Z,16.72
2018-07-13T07:24:38.214Z,16.74
2018-07-13T07:25:38.196Z,16.69
2018-07-13T07:26:38.121Z,16.71
2018-07-13T07:27:38.073Z,16.76
2018-07-13T07:28:38.027Z,16.80
2018-07-13T07:29:37.983Z,16.83
2018-07-13T07:30:38.004Z,16.82
2018-07-13T07:31:37.890Z,16.74
2018-07-13T07:32:37.838Z,16.75
2018-07-13T07:33:37.801Z,16.76
2018-07-13T07:34:37.747Z,16.76
2018-07-13T07:35:37.726Z,16.82
2018-07-13T07:36:37.646Z,16.83
2018-07-13T07:37:37.603Z,16.72
2018-07-13T07:38:37.560Z,16.80
2018-07-13T07:39:37.515Z,16.72
2018-07-13T07:40:37.506Z,16.69
2018-07-13T07:41:37.414Z,16.80
2018-07-13T07:42:37.373Z,16.83
2018-07-13T07:43:37.320Z,16.75
2018-07-13T07:44:37.275Z,16.71
2018-07-13T07:45:37.250Z,16.76
2018-07-13T07:46:37.181Z,16.76
2018-07-13T07:47:37.136Z,16.72
2018-07-13T07:48:37.085Z,16.87
2018-07-13T07:49:37.037Z,16.86
2018-07-13T07:50:37.017Z,16.87
2018-07-13T07:51:36.946Z,16.87
2018-07-13T07:52:36.906Z,16.98
2018-07-13T07:53:36.856Z,16.96
2018-07-13T07:54:36.802Z,17.04
2018-07-13T07:55:36.821Z,16.91
2018-07-13T07:56:36.712Z,16.99
2018-07-13T07:57:36.736Z,16.93
2018-07-13T07:58:36.620Z,17.06
2018-07-13T07:59:36.575Z,16.98
2018-07-13T08:00:36.543Z,17.01
2018-07-13T08:01:36.482Z,17.04
2018-07-13T08:02:36.427Z,17.01
2018-07-13T08:03:36.385Z,17.01
2018-07-13T08:04:36.335Z,17.05
2018-07-13T08:05:36.314Z,16.98
2018-07-13T08:06:36.380Z,17.02
2018-07-13T08:07:36.248Z,17.01
2018-07-13T08:08:36.150Z,17.04
2018-07-13T08:09:36.106Z,17.04
2018-07-13T08:10:36.077Z,17.09
2018-07-13T08:11:36.003Z,17.20
2018-07-13T08:12:35.959Z,17.16
2018-07-13T08:13:36.003Z,17.31
2018-07-13T08:14:35.923Z,17.26
2018-07-13T08:15:35.847Z,17.39
2018-07-13T08:16:35.784Z,17.30
2018-07-13T08:17:35.725Z,17.31
2018-07-13T08:18:35.679Z,17.37
2018-07-13T08:19:35.629Z,17.27
2018-07-13T08:20:35.611Z,17.30
2018-07-13T08:21:35.540Z,17.37
2018-07-13T08:22:35.488Z,17.30
2018-07-13T08:23:35.440Z,17.31
2018-07-13T08:24:35.394Z,17.23
2018-07-13T08:25:35.424Z,17.33
2018-07-13T08:26:35.305Z,17.27
2018-07-13T08:27:35.253Z,17.41
2018-07-13T08:28:35.209Z,17.31
2018-07-13T08:29:35.161Z,17.37
2018-07-13T08:30:35.122Z,17.48
2018-07-13T08:31:35.091Z,17.49
2018-07-13T08:32:35.028Z,17.57
2018-07-13T08:33:34.983Z,17.57
2018-07-13T08:34:34.927Z,17.56
2018-07-13T08:35:34.878Z,17.53
2018-07-13T08:36:34.855Z,17.53
2018-07-13T08:37:34.783Z,17.42
2018-07-13T08:38:34.740Z,17.46
2018-07-13T08:39:34.695Z,17.38
2018-07-13T08:40:34.644Z,17.35
2018-07-13T08:41:34.620Z,17.29
2018-07-13T08:42:34.548Z,17.35
2018-07-13T08:43:34.511Z,17.35
2018-07-13T08:44:34.459Z,17.38
2018-07-13T08:45:34.414Z,17.51
2018-07-13T08:46:34.388Z,17.53
2018-07-13T08:47:34.320Z,17.53
2018-07-13T08:48:34.273Z,17.54
2018-07-13T08:49:34.225Z,17.73
2018-07-13T08:50:34.180Z,17.68
2018-07-13T08:51:34.155Z,17.71
2018-07-13T08:52:34.096Z,17.82
2018-07-13T08:53:34.040Z,17.76
2018-07-13T08:54:33.991Z,17.78
2018-07-13T08:55:33.950Z,17.70
2018-07-13T08:56:33.922Z,17.73
2018-07-13T08:57:33.855Z,17.71
2018-07-13T08:58:33.808Z,17.78
2018-07-13T08:59:33.756Z,17.82
2018-07-13T09:00:33.712Z,17.80
2018-07-13T09:01:33.692Z,17.85
2018-07-13T09:02:33.617Z,17.85
2018-07-13T09:03:33.573Z,17.85
2018-07-13T09:04:33.554Z,17.89
2018-07-13T09:05:33.487Z,17.97
2018-07-13T09:06:33.551Z,18.01
2018-07-13T09:07:33.479Z,17.91
2018-07-13T09:08:33.344Z,17.97
2018-07-13T09:09:33.291Z,17.95
2018-07-13T09:10:33.253Z,17.94
2018-07-13T09:11:33.224Z,17.94
2018-07-13T09:12:33.171Z,17.93
2018-07-13T09:13:33.107Z,18.04
2018-07-13T09:14:33.064Z,17.97
2018-07-13T09:15:33.091Z,18.00
2018-07-13T09:16:32.990Z,18.09
2018-07-13T09:17:32.927Z,18.03
2018-07-13T09:18:32.881Z,18.05
2018-07-13T09:19:32.830Z,18.03
2018-07-13T09:20:32.782Z,18.01
2018-07-13T09:21:32.795Z,17.98
2018-07-13T09:22:32.690Z,18.04
2018-07-13T09:23:32.640Z,17.98
2018-07-13T09:24:32.598Z,17.97
2018-07-13T09:25:32.548Z,17.97
2018-07-13T09:26:32.527Z,18.07
2018-07-13T09:27:32.458Z,18.10
2018-07-13T09:28:32.412Z,18.07
2018-07-13T09:29:32.365Z,18.18
2018-07-13T09:30:32.315Z,18.23
2018-07-13T09:31:32.297Z,18.30
2018-07-13T09:32:32.222Z,18.25
2018-07-13T09:33:32.177Z,18.26
2018-07-13T09:34:32.131Z,18.31
2018-07-13T09:35:32.086Z,18.37
2018-07-13T09:36:32.263Z,18.31
2018-07-13T09:37:31.993Z,18.35
2018-07-13T09:38:31.948Z,18.37
2018-07-13T09:39:31.900Z,18.33
2018-07-13T09:40:31.857Z,18.26
2018-07-13T09:41:31.832Z,18.35
2018-07-13T09:42:31.761Z,18.34
2018-07-13T09:43:31.716Z,18.33
2018-07-13T09:44:31.674Z,18.33
2018-07-13T09:45:31.628Z,18.40
2018-07-13T09:46:31.592Z,18.46
2018-07-13T09:47:31.557Z,18.49
2018-07-13T09:48:31.491Z,18.43
2018-07-13T09:49:31.443Z,18.48
2018-07-13T09:50:31.393Z,18.41
2018-07-13T09:51:31.370Z,18.48
2018-07-13T09:52:31.327Z,18.48
2018-07-13T09:53:31.254Z,18.41
2018-07-13T09:54:31.212Z,18.46
2018-07-13T09:55:31.169Z,18.41
2018-07-13T09:56:31.128Z,18.48
2018-07-13T09:57:31.092Z,18.48
2018-07-13T09:58:31.025Z,18.60
2018-07-13T09:59:30.987Z,18.56
2018-07-13T10:00:30.996Z,18.56
2018-07-13T10:01:30.890Z,18.67
2018-07-13T10:02:30.861Z,18.58
2018-07-13T10:03:30.791Z,18.67
2018-07-13T10:04:30.758Z,18.60
2018-07-13T10:05:30.703Z,18.60
2018-07-13T10:06:30.656Z,18.68
2018-07-13T10:07:30.636Z,18.66
2018-07-13T10:08:30.570Z,18.73
2018-07-13T10:09:30.528Z,18.77
2018-07-13T10:10:30.479Z,18.81
2018-07-13T10:11:30.427Z,18.83
2018-07-13T10:12:30.413Z,18.85
2018-07-13T10:14:22.133Z,18.93
2018-07-13T10:15:22.080Z,18.85
2018-07-13T10:16:22.036Z,18.90
2018-07-13T10:17:22.016Z,18.90
2018-07-13T10:18:21.942Z,18.88
2018-07-13T10:19:21.900Z,18.86
2018-07-13T10:20:21.856Z,18.89
2018-07-13T10:21:21.806Z,19.04
2018-07-13T10:22:21.785Z,19.04
2018-07-13T10:23:21.719Z,19.11
2018-07-13T10:24:21.668Z,19.12
2018-07-13T10:25:21.626Z,19.11
2018-07-13T10:26:21.581Z,19.24
2018-07-13T10:27:21.553Z,19.22
2018-07-13T10:28:21.486Z,19.31
2018-07-13T10:29:21.444Z,19.34
2018-07-13T10:30:21.393Z,19.46
2018-07-13T10:31:21.346Z,19.66
2018-07-13T10:32:21.335Z,19.84
2018-07-13T10:33:21.264Z,19.81
2018-07-13T10:34:21.218Z,19.88
2018-07-13T10:35:21.259Z,19.99
2018-07-13T10:36:21.125Z,20.15
2018-07-13T10:37:21.101Z,20.07
2018-07-13T10:38:21.042Z,20.04
2018-07-13T10:39:20.985Z,19.96
2018-07-13T10:40:20.949Z,19.88
2018-07-13T10:41:20.917Z,19.85
2018-07-13T10:42:20.873Z,19.97
2018-07-13T10:43:20.819Z,19.99
2018-07-13T10:44:20.764Z,20.03
2018-07-13T10:45:20.717Z,19.99
2018-07-13T10:46:20.671Z,19.97
2018-07-13T10:47:20.645Z,20.09
2018-07-13T10:48:20.588Z,20.06
2018-07-13T10:49:20.544Z,20.15
2018-07-13T10:50:20.494Z,20.22
2018-07-13T10:51:20.445Z,20.34
2018-07-13T10:52:20.434Z,20.36
2018-07-13T10:53:20.363Z,20.18
2018-07-13T10:54:20.321Z,20.25
2018-07-13T10:55:20.268Z,20.36
2018-07-13T10:56:20.221Z,20.41
2018-07-13T10:57:20.202Z,20.62
2018-07-13T10:58:20.131Z,20.57
2018-07-13T10:59:20.085Z,20.60
2018-07-13T11:00:20.042Z,20.67
2018-07-13T11:01:19.998Z,20.71
2018-07-13T11:02:19.994Z,20.63
2018-07-13T11:03:19.914Z,20.66
2018-07-13T11:04:19.863Z,20.66
2018-07-13T11:05:19.826Z,20.66
2018-07-13T11:06:19.777Z,20.62
2018-07-13T11:07:19.729Z,20.57
2018-07-13T11:08:19.707Z,20.67
2018-07-13T11:09:19.643Z,20.77
2018-07-13T11:10:19.603Z,20.89
2018-07-13T11:11:19.550Z,20.84
2018-07-13T11:12:19.508Z,20.82
2018-07-13T11:13:19.484Z,20.84
2018-07-13T11:14:19.417Z,20.84
2018-07-13T11:15:19.377Z,20.85
2018-07-13T11:16:19.327Z,20.87
2018-07-13T11:17:19.285Z,20.87
2018-07-13T11:18:19.262Z,20.77
2018-07-13T11:19:19.195Z,20.78
2018-07-13T11:20:19.195Z,20.90
2018-07-13T11:21:19.108Z,21.02
2018-07-13T11:22:19.058Z,21.03
2018-07-13T11:23:19.041Z,21.08
2018-07-13T11:24:18.990Z,21.14
2018-07-13T11:25:18.930Z,21.10
2018-07-13T11:26:18.891Z,21.12
2018-07-13T11:27:18.840Z,21.11
2018-07-13T11:28:18.819Z,21.08
2018-07-13T11:29:18.750Z,21.08
2018-07-13T11:30:18.706Z,21.05
2018-07-13T11:31:18.662Z,21.11
2018-07-13T11:32:18.617Z,21.29
2018-07-13T11:33:18.596Z,21.30
2018-07-13T11:34:18.530Z,21.30
2018-07-13T11:35:18.483Z,21.35
2018-07-13T11:36:18.441Z,21.29
2018-07-13T11:37:18.491Z,21.29
2018-07-13T11:38:18.372Z,21.18
2018-07-13T11:39:18.310Z,21.12
2018-07-13T11:40:18.267Z,21.18
2018-07-13T11:41:18.224Z,21.24
2018-07-13T11:42:18.177Z,21.29
2018-07-13T11:43:18.164Z,21.15
2018-07-13T11:44:18.139Z,21.08
2018-07-13T11:45:18.044Z,21.15
2018-07-13T11:46:17.996Z,21.15
2018-07-13T11:47:17.951Z,21.27
2018-07-13T11:48:17.927Z,21.29
2018-07-13T11:49:17.861Z,21.32
2018-07-13T11:50:17.815Z,21.33
2018-07-13T11:51:17.770Z,21.27
2018-07-13T11:52:17.727Z,21.33
2018-07-13T11:53:17.711Z,21.36
2018-07-13T11:54:17.640Z,21.45
2018-07-13T11:55:17.596Z,21.48
2018-07-13T11:56:17.553Z,21.55
2018-07-13T11:57:17.509Z,21.63
2018-07-13T11:58:17.486Z,21.74
2018-07-13T11:59:17.420Z,21.82
2018-07-13T12:00:17.371Z,21.85
2018-07-13T12:01:17.329Z,21.90
2018-07-13T12:02:17.283Z,22.04
2018-07-13T12:03:17.264Z,22.15
2018-07-13T12:04:17.201Z,22.25
2018-07-13T12:05:17.151Z,22.26
2018-07-13T12:06:17.107Z,22.25
2018-07-13T12:07:17.061Z,22.35
2018-07-13T12:08:17.043Z,22.35
2018-07-13T12:09:16.975Z,22.40
2018-07-13T12:10:16.931Z,22.36
2018-07-13T12:11:16.884Z,22.44
2018-07-13T12:12:16.841Z,22.40
2018-07-13T12:13:16.835Z,22.35
2018-07-13T12:14:16.815Z,22.44
2018-07-13T12:15:16.708Z,22.30
2018-07-13T12:16:16.714Z,22.26
2018-07-13T12:17:16.678Z,22.14
2018-07-13T12:18:16.615Z,22.23
2018-07-13T12:19:16.536Z,22.19
2018-07-13T12:20:16.489Z,22.26
2018-07-13T12:21:16.446Z,22.33
2018-07-13T12:22:16.407Z,22.40
2018-07-13T12:23:16.394Z,22.43
2018-07-13T12:24:16.312Z,22.45
2018-07-13T12:25:16.269Z,22.41
2018-07-13T12:26:16.225Z,22.48
2018-07-13T12:27:16.179Z,22.45
2018-07-13T12:28:16.160Z,22.53
2018-07-13T12:29:16.096Z,22.47
2018-07-13T12:30:16.049Z,22.47
2018-07-13T12:31:16.007Z,22.56
2018-07-13T12:32:15.961Z,22.62
2018-07-13T12:33:15.945Z,22.56
2018-07-13T12:34:15.876Z,22.54
2018-07-13T12:35:15.829Z,22.59
2018-07-13T12:36:15.784Z,22.60
2018-07-13T12:37:15.742Z,22.58
2018-07-13T12:38:15.696Z,22.60
2018-07-13T12:39:15.675Z,22.56
2018-07-13T12:40:15.610Z,22.69
2018-07-13T12:41:15.565Z,22.70
2018-07-13T12:42:15.528Z,22.70
2018-07-13T12:43:15.475Z,22.69
2018-07-13T12:44:15.455Z,22.75
2018-07-13T12:45:15.392Z,22.81
2018-07-13T12:46:15.347Z,22.72
2018-07-13T12:47:15.302Z,22.87
2018-07-13T12:48:15.263Z,22.93
2018-07-13T12:49:15.241Z,22.91
2018-07-13T12:50:15.169Z,22.88
2018-07-13T12:51:15.159Z,23.06
2018-07-13T12:52:15.086Z,23.14
2018-07-13T12:53:15.041Z,23.09